Oakdale, Massachusetts
Current Conditions -  °F | °C
As of 4:54 PM on Thursday 27 Nov 2014 (Local Time) from KORH Reporting Station
Overcast Overcast  
Wind Chill: 22°   Ceiling: 1400
Heat Index: 29°   Visibility: 10mi
Dew Point: 25°   Wind: 7mph
Humidity: 85%   Direction: 340°NNW
Pressure: 29.94"   Gusts: NA
Location:  42.37°N, 71.7814°W
Report Text: KORH 272154Z 34006KT 10SM OVC014 M02/M04 A2994 RMK AO2 SLP151 T10171039
Loading
Personal Weather Stations






























Interactive Weather Map New forecast layout! Learn more

10-Day Weather Forecast

Advertisements
Track Severe Weather on mobile